createdAt,value
2022-09-07T00:00:50.245Z,5.20
2022-09-07T00:05:52.916Z,4.97
2022-09-07T00:11:03.580Z,5.10
2022-09-07T00:16:08.648Z,4.65
2022-09-07T00:21:11.732Z,3.63
2022-09-07T00:26:18.049Z,5.47
2022-09-07T00:31:22.776Z,4.03
2022-09-07T00:36:25.450Z,5.00
2022-09-07T00:41:27.843Z,4.55
2022-09-07T00:46:35.361Z,3.92
2022-09-07T00:51:52.867Z,6.57
2022-09-07T00:56:56.865Z,3.78
2022-09-07T01:01:59.616Z,5.05
2022-09-07T01:07:04.079Z,3.35
2022-09-07T01:12:07.980Z,4.80
2022-09-07T01:17:32.342Z,5.00
2022-09-07T01:23:11.887Z,7.55
2022-09-07T01:28:27.606Z,4.90
2022-09-07T01:33:38.864Z,5.55
2022-09-07T01:39:02.755Z,7.10
2022-09-07T01:44:10.771Z,5.95
2022-09-07T01:49:21.769Z,7.90
2022-09-07T01:54:29.728Z,4.35
2022-09-07T01:59:50.427Z,6.65
2022-09-07T02:05:08.035Z,3.53
2022-09-07T02:10:16.673Z,6.30
2022-09-07T02:15:26.265Z,5.07
2022-09-07T02:20:53.100Z,4.88
2022-09-07T02:26:10.865Z,4.32
2022-09-07T02:31:13.471Z,4.47
2022-09-07T02:36:22.000Z,7.43
2022-09-07T02:41:36.020Z,5.00
2022-09-07T02:47:21.848Z,3.83
2022-09-07T02:52:47.336Z,7.40
2022-09-07T02:58:11.010Z,6.45
2022-09-07T03:03:32.386Z,4.32
2022-09-07T03:13:47.412Z,8.77
2022-09-07T03:18:49.987Z,5.90
2022-09-07T03:23:53.336Z,5.70
2022-09-07T03:28:55.672Z,6.55
2022-09-07T03:33:57.924Z,10.32
2022-09-07T03:39:00.699Z,5.43
2022-09-07T03:44:07.170Z,4.22
2022-09-07T03:49:09.299Z,4.93
2022-09-07T03:54:11.576Z,8.70
2022-09-07T03:59:13.889Z,3.72
2022-09-07T04:04:16.130Z,4.53
2022-09-07T04:09:18.392Z,6.95
2022-09-07T04:14:20.690Z,5.40
2022-09-07T04:19:23.313Z,6.60
2022-09-07T04:24:25.819Z,7.40
2022-09-07T04:29:28.121Z,5.65
2022-09-07T04:34:30.611Z,6.32
2022-09-07T04:39:32.908Z,5.43
2022-09-07T04:44:35.637Z,7.10
2022-09-07T04:49:37.838Z,4.53
2022-09-07T04:54:40.097Z,4.93
2022-09-07T04:59:42.382Z,5.75
2022-09-07T05:04:44.801Z,12.70
2022-09-07T05:09:47.497Z,4.72
2022-09-07T05:14:49.809Z,9.90
2022-09-07T05:19:52.262Z,6.50
2022-09-07T05:24:54.906Z,4.38
2022-09-07T05:35:02.417Z,4.38
2022-09-07T05:40:05.687Z,5.22
2022-09-07T05:45:08.465Z,3.63
2022-09-07T05:50:11.678Z,4.88
2022-09-07T05:55:29.290Z,3.58
2022-09-07T06:00:32.442Z,6.80
2022-09-07T06:05:34.747Z,4.07
2022-09-07T14:13:34.302Z,2.65
2022-09-07T14:18:37.055Z,8.52
2022-09-07T14:23:41.861Z,2.67
2022-09-07T14:28:46.193Z,11.52
2022-09-07T14:33:57.238Z,28.17
2022-09-07T14:39:04.304Z,12.07
2022-09-07T14:44:07.085Z,11.65
2022-09-07T14:49:21.320Z,7.35
2022-09-07T14:54:28.229Z,4.95
2022-09-07T14:59:45.969Z,5.78
2022-09-07T15:05:10.118Z,4.68
2022-09-07T15:10:33.495Z,5.97
2022-09-07T15:15:39.751Z,5.53
2022-09-07T15:20:44.534Z,12.90
2022-09-07T15:25:53.695Z,8.48
2022-09-07T15:36:20.441Z,22.13
2022-09-07T15:41:24.566Z,133.48
2022-09-07T15:46:28.044Z,23.92
2022-09-07T16:13:16.846Z,35.58
2022-09-07T16:18:39.280Z,15.10
2022-09-07T16:23:55.281Z,51.42
2022-09-07T16:28:58.597Z,77.53
2022-09-07T16:34:02.527Z,80.85
2022-09-07T16:39:05.025Z,85.30
2022-09-07T16:44:07.883Z,107.60
2022-09-07T16:49:11.351Z,72.18
2022-09-07T16:54:14.665Z,122.10
2022-09-07T16:59:21.673Z,116.13
2022-09-07T17:04:24.205Z,93.82
2022-09-07T17:21:38.084Z,58.85
2022-09-07T17:37:09.113Z,43.45
2022-09-07T17:42:11.484Z,29.38
2022-09-07T17:47:13.779Z,14.93
2022-09-07T17:52:15.956Z,12.90
2022-09-07T17:57:18.024Z,14.10
2022-09-07T18:02:20.590Z,13.48
2022-09-07T18:07:22.881Z,10.00
2022-09-07T18:12:25.114Z,15.18
2022-09-07T18:17:27.450Z,14.70
2022-09-07T18:22:29.865Z,10.57
2022-09-07T18:27:32.312Z,14.75
2022-09-07T18:32:34.717Z,14.45
2022-09-07T18:37:38.303Z,14.68
2022-09-07T18:42:42.556Z,10.32
2022-09-07T18:47:50.174Z,14.98
2022-09-07T18:52:53.364Z,10.18
2022-09-07T18:57:56.188Z,23.83
2022-09-07T19:02:59.629Z,17.65
2022-09-07T19:08:04.181Z,16.08
2022-09-07T19:13:06.683Z,13.45
2022-09-07T19:18:09.934Z,34.45
2022-09-07T19:23:12.063Z,22.85
2022-09-07T19:28:14.872Z,20.55
2022-09-07T19:33:17.037Z,21.60
2022-09-07T19:38:43.722Z,13.35
2022-09-07T19:43:47.251Z,13.77
2022-09-07T19:48:49.820Z,8.95
2022-09-07T19:53:52.080Z,78.25
2022-09-07T19:58:54.878Z,21.23
2022-09-07T20:04:03.814Z,13.60
2022-09-07T20:09:08.538Z,25.05
2022-09-07T20:14:10.954Z,14.50
2022-09-07T20:19:17.591Z,14.02
2022-09-07T20:24:22.705Z,11.48
2022-09-07T20:29:29.076Z,10.65
2022-09-07T20:34:32.338Z,28.20
2022-09-07T20:39:38.927Z,9.73
2022-09-07T20:44:41.645Z,51.20
2022-09-07T20:49:44.104Z,21.38
2022-09-07T20:54:46.395Z,22.45
2022-09-07T20:59:48.713Z,61.13
2022-09-07T21:04:51.354Z,81.13
2022-09-07T21:09:53.592Z,14.07
2022-09-07T21:14:55.907Z,8.98
2022-09-07T21:19:58.049Z,11.13
2022-09-07T21:25:00.334Z,18.45
2022-09-07T21:30:02.614Z,9.38
2022-09-07T21:35:05.057Z,12.48
2022-09-07T21:40:08.179Z,9.40
2022-09-07T21:45:12.738Z,10.95
2022-09-07T21:50:14.974Z,14.20
2022-09-07T21:55:17.394Z,15.25
2022-09-07T22:00:19.760Z,9.13
2022-09-07T22:05:22.287Z,13.10
2022-09-07T22:10:24.563Z,8.00
2022-09-07T22:15:26.871Z,12.82
2022-09-07T22:20:28.947Z,9.20
2022-09-07T22:25:31.905Z,11.95
2022-09-07T22:30:34.103Z,11.98
2022-09-07T22:35:36.180Z,10.25
2022-09-07T22:40:38.534Z,10.20
2022-09-07T22:45:40.632Z,7.28
2022-09-07T22:50:42.985Z,7.93
2022-09-07T22:55:45.447Z,7.63
2022-09-07T23:00:47.715Z,7.25
2022-09-07T23:05:49.903Z,12.00
2022-09-07T23:10:52.455Z,6.63
2022-09-07T23:43:32.756Z,6.43
2022-09-07T23:48:35.216Z,11.00
2022-09-07T23:53:37.402Z,7.40
2022-09-07T23:58:39.538Z,7.22
